sensor_id;sensor_type;location;lat;lon;timestamp;pressure;altitude;pressure_sealevel;temperature
14023;BMP180;7086;48.116;11.580;2022-08-21T00:00:31;95423.00;;;21.40
14023;BMP180;7086;48.116;11.580;2022-08-21T00:03:02;95420.00;;;21.40
14023;BMP180;7086;48.116;11.580;2022-08-21T00:05:32;95416.00;;;21.40
14023;BMP180;7086;48.116;11.580;2022-08-21T00:08:02;95436.00;;;21.40
14023;BMP180;7086;48.116;11.580;2022-08-21T00:10:30;95431.00;;;21.30
14023;BMP180;7086;48.116;11.580;2022-08-21T00:12:57;95418.00;;;21.30
14023;BMP180;7086;48.116;11.580;2022-08-21T00:15:32;95401.00;;;21.10
14023;BMP180;7086;48.116;11.580;2022-08-21T00:17:59;95368.00;;;21.20
14023;BMP180;7086;48.116;11.580;2022-08-21T00:20:30;95405.00;;;21.20
14023;BMP180;7086;48.116;11.580;2022-08-21T00:22:57;95405.00;;;21.20
14023;BMP180;7086;48.116;11.580;2022-08-21T00:25:26;95408.00;;;21.10
14023;BMP180;7086;48.116;11.580;2022-08-21T00:27:54;95416.00;;;21.10
14023;BMP180;7086;48.116;11.580;2022-08-21T00:30:26;95414.00;;;21.10
14023;BMP180;7086;48.116;11.580;2022-08-21T00:32:56;95404.00;;;21.00
14023;BMP180;7086;48.116;11.580;2022-08-21T00:35:27;95423.00;;;21.00
14023;BMP180;7086;48.116;11.580;2022-08-21T00:37:56;95415.00;;;21.00
14023;BMP180;7086;48.116;11.580;2022-08-21T00:40:28;95426.00;;;21.00
14023;BMP180;7086;48.116;11.580;2022-08-21T00:42:56;95417.00;;;21.00
14023;BMP180;7086;48.116;11.580;2022-08-21T00:45:24;95410.00;;;21.00
14023;BMP180;7086;48.116;11.580;2022-08-21T00:47:55;95380.00;;;20.90
14023;BMP180;7086;48.116;11.580;2022-08-21T00:50:29;95402.00;;;20.90
14023;BMP180;7086;48.116;11.580;2022-08-21T00:52:59;95366.00;;;20.90
14023;BMP180;7086;48.116;11.580;2022-08-21T00:55:30;95414.00;;;20.80
14023;BMP180;7086;48.116;11.580;2022-08-21T00:58:03;95407.00;;;20.70
14023;BMP180;7086;48.116;11.580;2022-08-21T01:00:37;95406.00;;;20.80
14023;BMP180;7086;48.116;11.580;2022-08-21T01:03:13;95412.00;;;20.80
14023;BMP180;7086;48.116;11.580;2022-08-21T01:05:42;95375.00;;;20.80
14023;BMP180;7086;48.116;11.580;2022-08-21T01:08:11;95402.00;;;20.80
14023;BMP180;7086;48.116;11.580;2022-08-21T01:10:40;95412.00;;;20.80
14023;BMP180;7086;48.116;11.580;2022-08-21T01:13:11;95412.00;;;20.70
14023;BMP180;7086;48.116;11.580;2022-08-21T01:15:47;95401.00;;;20.70
14023;BMP180;7086;48.116;11.580;2022-08-21T01:18:21;95407.00;;;20.70
14023;BMP180;7086;48.116;11.580;2022-08-21T01:21:05;95350.00;;;20.60
14023;BMP180;7086;48.116;11.580;2022-08-21T01:23:35;95396.00;;;20.60
14023;BMP180;7086;48.116;11.580;2022-08-21T01:26:05;95363.00;;;20.60
14023;BMP180;7086;48.116;11.580;2022-08-21T01:28:38;95365.00;;;20.60
14023;BMP180;7086;48.116;11.580;2022-08-21T01:31:10;95367.00;;;20.60
14023;BMP180;7086;48.116;11.580;2022-08-21T01:33:40;95392.00;;;20.50
14023;BMP180;7086;48.116;11.580;2022-08-21T01:36:10;95381.00;;;20.50
14023;BMP180;7086;48.116;11.580;2022-08-21T01:38:37;95390.00;;;20.50
14023;BMP180;7086;48.116;11.580;2022-08-21T01:41:05;95412.00;;;20.50
14023;BMP180;7086;48.116;11.580;2022-08-21T01:43:33;95391.00;;;20.50
14023;BMP180;7086;48.116;11.580;2022-08-21T01:46:03;95409.00;;;20.40
14023;BMP180;7086;48.116;11.580;2022-08-21T01:48:30;95359.00;;;20.40
14023;BMP180;7086;48.116;11.580;2022-08-21T01:50:58;95390.00;;;20.40
14023;BMP180;7086;48.116;11.580;2022-08-21T01:53:27;95389.00;;;20.40
14023;BMP180;7086;48.116;11.580;2022-08-21T01:55:55;95365.00;;;20.40
14023;BMP180;7086;48.116;11.580;2022-08-21T01:58:23;95369.00;;;20.30
14023;BMP180;7086;48.116;11.580;2022-08-21T02:00:51;95386.00;;;20.30
14023;BMP180;7086;48.116;11.580;2022-08-21T02:03:18;95374.00;;;20.30
14023;BMP180;7086;48.116;11.580;2022-08-21T02:05:46;95377.00;;;20.30
14023;BMP180;7086;48.116;11.580;2022-08-21T02:08:14;95374.00;;;20.30
14023;BMP180;7086;48.116;11.580;2022-08-21T02:10:43;95369.00;;;20.20
14023;BMP180;7086;48.116;11.580;2022-08-21T02:13:12;95366.00;;;20.20
14023;BMP180;7086;48.116;11.580;2022-08-21T02:15:40;95360.00;;;20.20
14023;BMP180;7086;48.116;11.580;2022-08-21T02:18:07;95360.00;;;20.20
14023;BMP180;7086;48.116;11.580;2022-08-21T02:20:39;95363.00;;;20.20
14023;BMP180;7086;48.116;11.580;2022-08-21T02:23:10;95366.00;;;20.20
14023;BMP180;7086;48.116;11.580;2022-08-21T02:25:38;95360.00;;;20.10
14023;BMP180;7086;48.116;11.580;2022-08-21T02:28:12;95371.00;;;20.10
14023;BMP180;7086;48.116;11.580;2022-08-21T02:30:45;95365.00;;;20.10
14023;BMP180;7086;48.116;11.580;2022-08-21T02:33:13;95341.00;;;20.10
14023;BMP180;7086;48.116;11.580;2022-08-21T02:35:43;95380.00;;;20.10
14023;BMP180;7086;48.116;11.580;2022-08-21T02:38:14;95364.00;;;20.10
14023;BMP180;7086;48.116;11.580;2022-08-21T02:40:45;95367.00;;;20.10
14023;BMP180;7086;48.116;11.580;2022-08-21T02:43:16;95353.00;;;20.00
14023;BMP180;7086;48.116;11.580;2022-08-21T02:45:46;95367.00;;;20.00
14023;BMP180;7086;48.116;11.580;2022-08-21T02:48:17;95362.00;;;20.00
14023;BMP180;7086;48.116;11.580;2022-08-21T02:50:48;95360.00;;;20.00
14023;BMP180;7086;48.116;11.580;2022-08-21T02:53:16;95341.00;;;20.00
14023;BMP180;7086;48.116;11.580;2022-08-21T02:55:47;95357.00;;;19.90
14023;BMP180;7086;48.116;11.580;2022-08-21T02:58:19;95366.00;;;19.90
14023;BMP180;7086;48.116;11.580;2022-08-21T03:00:47;95359.00;;;19.90
14023;BMP180;7086;48.116;11.580;2022-08-21T03:03:15;95361.00;;;19.90
14023;BMP180;7086;48.116;11.580;2022-08-21T03:05:43;95309.00;;;19.90
14023;BMP180;7086;48.116;11.580;2022-08-21T03:08:14;95339.00;;;19.90
14023;BMP180;7086;48.116;11.580;2022-08-21T03:10:46;95358.00;;;19.80
14023;BMP180;7086;48.116;11.580;2022-08-21T03:13:16;95388.00;;;19.90
14023;BMP180;7086;48.116;11.580;2022-08-21T03:15:47;95375.00;;;19.90
14023;BMP180;7086;48.116;11.580;2022-08-21T03:18:15;95367.00;;;19.90
14023;BMP180;7086;48.116;11.580;2022-08-21T03:20:43;95350.00;;;19.90
14023;BMP180;7086;48.116;11.580;2022-08-21T03:23:12;95378.00;;;19.90
14023;BMP180;7086;48.116;11.580;2022-08-21T03:25:40;95369.00;;;19.90
14023;BMP180;7086;48.116;11.580;2022-08-21T03:28:12;95346.00;;;19.80
14023;BMP180;7086;48.116;11.580;2022-08-21T03:30:42;95365.00;;;19.80
14023;BMP180;7086;48.116;11.580;2022-08-21T03:33:10;95332.00;;;19.80
14023;BMP180;7086;48.116;11.580;2022-08-21T03:35:38;95368.00;;;19.80
14023;BMP180;7086;48.116;11.580;2022-08-21T03:38:07;95355.00;;;19.80
14023;BMP180;7086;48.116;11.580;2022-08-21T03:40:35;95343.00;;;19.80
14023;BMP180;7086;48.116;11.580;2022-08-21T03:43:02;95365.00;;;19.80
14023;BMP180;7086;48.116;11.580;2022-08-21T03:45:30;95361.00;;;19.80
14023;BMP180;7086;48.116;11.580;2022-08-21T03:48:02;95376.00;;;19.60
14023;BMP180;7086;48.116;11.580;2022-08-21T03:50:34;95368.00;;;19.70
14023;BMP180;7086;48.116;11.580;2022-08-21T03:53:02;95376.00;;;19.70
14023;BMP180;7086;48.116;11.580;2022-08-21T03:55:31;95376.00;;;19.70
14023;BMP180;7086;48.116;11.580;2022-08-21T03:57:58;95345.00;;;19.70
14023;BMP180;7086;48.116;11.580;2022-08-21T04:00:26;95375.00;;;19.70
14023;BMP180;7086;48.116;11.580;2022-08-21T04:02:54;95380.00;;;19.70
14023;BMP180;7086;48.116;11.580;2022-08-21T04:05:23;95377.00;;;19.60
14023;BMP180;7086;48.116;11.580;2022-08-21T04:07:59;95373.00;;;19.60
14023;BMP180;7086;48.116;11.580;2022-08-21T04:10:37;95387.00;;;19.60
14023;BMP180;7086;48.116;11.580;2022-08-21T04:13:09;95347.00;;;19.60
14023;BMP180;7086;48.116;11.580;2022-08-21T04:15:38;95375.00;;;19.60
14023;BMP180;7086;48.116;11.580;2022-08-21T04:18:06;95382.00;;;19.60
14023;BMP180;7086;48.116;11.580;2022-08-21T04:20:38;95385.00;;;19.60
14023;BMP180;7086;48.116;11.580;2022-08-21T04:23:07;95401.00;;;19.50
14023;BMP180;7086;48.116;11.580;2022-08-21T04:25:35;95384.00;;;19.50
14023;BMP180;7086;48.116;11.580;2022-08-21T04:28:04;95389.00;;;19.50
14023;BMP180;7086;48.116;11.580;2022-08-21T04:30:33;95388.00;;;19.50
14023;BMP180;7086;48.116;11.580;2022-08-21T04:33:02;95393.00;;;19.50
14023;BMP180;7086;48.116;11.580;2022-08-21T04:35:31;95413.00;;;19.50
14023;BMP180;7086;48.116;11.580;2022-08-21T04:38:01;95409.00;;;19.50
14023;BMP180;7086;48.116;11.580;2022-08-21T04:40:29;95410.00;;;19.50
14023;BMP180;7086;48.116;11.580;2022-08-21T04:43:01;95383.00;;;19.50
14023;BMP180;7086;48.116;11.580;2022-08-21T04:45:31;95409.00;;;19.50
14023;BMP180;7086;48.116;11.580;2022-08-21T04:48:04;95306.00;;;19.50
14023;BMP180;7086;48.116;11.580;2022-08-21T04:50:42;95424.00;;;19.60
14023;BMP180;7086;48.116;11.580;2022-08-21T04:53:16;95369.00;;;19.60
14023;BMP180;7086;48.116;11.580;2022-08-21T04:55:45;95409.00;;;19.50
14023;BMP180;7086;48.116;11.580;2022-08-21T04:58:17;95413.00;;;19.60
14023;BMP180;7086;48.116;11.580;2022-08-21T05:00:47;95376.00;;;19.50
14023;BMP180;7086;48.116;11.580;2022-08-21T05:03:49;95286.00;;;19.30
14023;BMP180;7086;48.116;11.580;2022-08-21T05:06:23;95412.00;;;19.60
14023;BMP180;7086;48.116;11.580;2022-08-21T05:09:07;95415.00;;;19.70
14023;BMP180;7086;48.116;11.580;2022-08-21T05:11:36;95419.00;;;19.80
14023;BMP180;7086;48.116;11.580;2022-08-21T05:14:04;95415.00;;;19.80
14023;BMP180;7086;48.116;11.580;2022-08-21T05:16:37;95409.00;;;19.90
14023;BMP180;7086;48.116;11.580;2022-08-21T05:19:05;95404.00;;;19.90
14023;BMP180;7086;48.116;11.580;2022-08-21T05:21:34;95416.00;;;20.00
14023;BMP180;7086;48.116;11.580;2022-08-21T05:24:02;95419.00;;;20.10
14023;BMP180;7086;48.116;11.580;2022-08-21T05:26:31;95424.00;;;20.10
14023;BMP180;7086;48.116;11.580;2022-08-21T05:29:00;95417.00;;;20.20
14023;BMP180;7086;48.116;11.580;2022-08-21T05:31:27;95407.00;;;20.20
14023;BMP180;7086;48.116;11.580;2022-08-21T05:33:55;95417.00;;;20.30
14023;BMP180;7086;48.116;11.580;2022-08-21T05:36:23;95418.00;;;20.30
14023;BMP180;7086;48.116;11.580;2022-08-21T05:38:51;95419.00;;;20.40
14023;BMP180;7086;48.116;11.580;2022-08-21T05:41:20;95426.00;;;20.40
14023;BMP180;7086;48.116;11.580;2022-08-21T05:43:49;95431.00;;;20.50
14023;BMP180;7086;48.116;11.580;2022-08-21T05:46:17;95425.00;;;20.60
14023;BMP180;7086;48.116;11.580;2022-08-21T05:48:44;95411.00;;;20.70
14023;BMP180;7086;48.116;11.580;2022-08-21T05:51:14;95436.00;;;20.70
14023;BMP180;7086;48.116;11.580;2022-08-21T05:53:42;95434.00;;;20.80
14023;BMP180;7086;48.116;11.580;2022-08-21T05:56:12;95406.00;;;20.90
14023;BMP180;7086;48.116;11.580;2022-08-21T05:58:40;95434.00;;;21.00
14023;BMP180;7086;48.116;11.580;2022-08-21T06:01:10;95424.00;;;21.00
14023;BMP180;7086;48.116;11.580;2022-08-21T06:03:40;95443.00;;;21.10
14023;BMP180;7086;48.116;11.580;2022-08-21T06:06:09;95406.00;;;21.20
14023;BMP180;7086;48.116;11.580;2022-08-21T06:08:38;95431.00;;;21.30
14023;BMP180;7086;48.116;11.580;2022-08-21T06:11:07;95389.00;;;21.30
14023;BMP180;7086;48.116;11.580;2022-08-21T06:13:36;95405.00;;;21.40
14023;BMP180;7086;48.116;11.580;2022-08-21T06:16:10;95423.00;;;21.50
14023;BMP180;7086;48.116;11.580;2022-08-21T06:18:39;95439.00;;;21.60
14023;BMP180;7086;48.116;11.580;2022-08-21T06:21:07;95431.00;;;21.70
14023;BMP180;7086;48.116;11.580;2022-08-21T06:23:35;95431.00;;;21.80
14023;BMP180;7086;48.116;11.580;2022-08-21T06:26:03;95418.00;;;22.00
14023;BMP180;7086;48.116;11.580;2022-08-21T06:28:32;95439.00;;;22.30
14023;BMP180;7086;48.116;11.580;2022-08-21T06:44:26;95430.00;;;26.40
14023;BMP180;7086;48.116;11.580;2022-08-21T06:47:07;95426.00;;;27.20
14023;BMP180;7086;48.116;11.580;2022-08-21T06:49:49;95432.00;;;28.00
14023;BMP180;7086;48.116;11.580;2022-08-21T06:52:33;95372.00;;;28.70
14023;BMP180;7086;48.116;11.580;2022-08-21T07:17:31;95380.00;;;33.00
14023;BMP180;7086;48.116;11.580;2022-08-21T07:20:18;95452.00;;;33.20
14023;BMP180;7086;48.116;11.580;2022-08-21T07:42:13;95428.00;;;35.40
14023;BMP180;7086;48.116;11.580;2022-08-21T07:44:41;95424.00;;;35.70
14023;BMP180;7086;48.116;11.580;2022-08-21T07:47:11;95432.00;;;35.80
14023;BMP180;7086;48.116;11.580;2022-08-21T07:52:24;95420.00;;;36.40
14023;BMP180;7086;48.116;11.580;2022-08-21T07:55:08;95397.00;;;36.50
14023;BMP180;7086;48.116;11.580;2022-08-21T07:57:41;95421.00;;;36.60
14023;BMP180;7086;48.116;11.580;2022-08-21T08:00:19;95437.00;;;36.60
14023;BMP180;7086;48.116;11.580;2022-08-21T08:05:38;95419.00;;;36.90
14023;BMP180;7086;48.116;11.580;2022-08-21T08:08:20;95423.00;;;37.00
14023;BMP180;7086;48.116;11.580;2022-08-21T08:10:53;95423.00;;;37.10
14023;BMP180;7086;48.116;11.580;2022-08-21T08:13:38;95395.00;;;37.10
14023;BMP180;7086;48.116;11.580;2022-08-21T08:16:20;95419.00;;;37.20
14023;BMP180;7086;48.116;11.580;2022-08-21T08:21:32;95421.00;;;37.30
14023;BMP180;7086;48.116;11.580;2022-08-21T08:24:04;95359.00;;;37.00
14023;BMP180;7086;48.116;11.580;2022-08-21T08:29:23;95401.00;;;37.00
14023;BMP180;7086;48.116;11.580;2022-08-21T08:31:52;95423.00;;;37.10
14023;BMP180;7086;48.116;11.580;2022-08-21T08:34:33;95418.00;;;37.30
14023;BMP180;7086;48.116;11.580;2022-08-21T08:37:10;95373.00;;;37.30
14023;BMP180;7086;48.116;11.580;2022-08-21T08:39:40;95419.00;;;37.30
14023;BMP180;7086;48.116;11.580;2022-08-21T08:42:14;95435.00;;;37.30
14023;BMP180;7086;48.116;11.580;2022-08-21T08:44:50;95400.00;;;37.30
14023;BMP180;7086;48.116;11.580;2022-08-21T08:47:27;95437.00;;;37.30
14023;BMP180;7086;48.116;11.580;2022-08-21T08:50:04;95416.00;;;37.30
14023;BMP180;7086;48.116;11.580;2022-08-21T08:52:45;95396.00;;;37.30
14023;BMP180;7086;48.116;11.580;2022-08-21T08:55:35;95413.00;;;37.40
14023;BMP180;7086;48.116;11.580;2022-08-21T08:58:10;95434.00;;;37.40
14023;BMP180;7086;48.116;11.580;2022-08-21T09:01:13;95340.00;;;37.30
14023;BMP180;7086;48.116;11.580;2022-08-21T09:09:14;95366.00;;;37.40
14023;BMP180;7086;48.116;11.580;2022-08-21T09:12:10;95435.00;;;37.50
14023;BMP180;7086;48.116;11.580;2022-08-21T09:54:54;95408.00;;;39.70
14023;BMP180;7086;48.116;11.580;2022-08-21T09:57:26;95377.00;;;39.30
14023;BMP180;7086;48.116;11.580;2022-08-21T10:00:18;95369.00;;;38.40
14023;BMP180;7086;48.116;11.580;2022-08-21T10:02:47;95406.00;;;37.70
14023;BMP180;7086;48.116;11.580;2022-08-21T10:05:21;95361.00;;;36.90
14023;BMP180;7086;48.116;11.580;2022-08-21T10:07:49;95400.00;;;36.30
14023;BMP180;7086;48.116;11.580;2022-08-21T10:11:02;95401.00;;;35.60
14023;BMP180;7086;48.116;11.580;2022-08-21T10:16:32;95380.00;;;35.50
14023;BMP180;7086;48.116;11.580;2022-08-21T10:19:29;95400.00;;;35.60
14023;BMP180;7086;48.116;11.580;2022-08-21T10:22:26;95393.00;;;35.80
14023;BMP180;7086;48.116;11.580;2022-08-21T10:25:13;95374.00;;;36.00
14023;BMP180;7086;48.116;11.580;2022-08-21T10:28:16;95392.00;;;36.30
14023;BMP180;7086;48.116;11.580;2022-08-21T10:30:51;95394.00;;;36.50
14023;BMP180;7086;48.116;11.580;2022-08-21T10:33:37;95404.00;;;36.60
14023;BMP180;7086;48.116;11.580;2022-08-21T10:36:33;95352.00;;;36.30
14023;BMP180;7086;48.116;11.580;2022-08-21T10:39:28;95316.00;;;35.80
14023;BMP180;7086;48.116;11.580;2022-08-21T10:42:30;95401.00;;;35.20
14023;BMP180;7086;48.116;11.580;2022-08-21T10:45:17;95353.00;;;34.50
14023;BMP180;7086;48.116;11.580;2022-08-21T10:47:58;95349.00;;;34.00
14023;BMP180;7086;48.116;11.580;2022-08-21T10:50:45;95373.00;;;33.60
14023;BMP180;7086;48.116;11.580;2022-08-21T10:54:07;95379.00;;;33.30
14023;BMP180;7086;48.116;11.580;2022-08-21T10:56:42;95396.00;;;33.30
14023;BMP180;7086;48.116;11.580;2022-08-21T10:59:39;95315.00;;;33.30
14023;BMP180;7086;48.116;11.580;2022-08-21T11:02:23;95311.00;;;33.20
14023;BMP180;7086;48.116;11.580;2022-08-21T11:05:07;95314.00;;;33.00
14023;BMP180;7086;48.116;11.580;2022-08-21T11:07:46;95343.00;;;32.50
14023;BMP180;7086;48.116;11.580;2022-08-21T11:10:23;95305.00;;;32.60
14023;BMP180;7086;48.116;11.580;2022-08-21T11:12:58;95315.00;;;32.40
14023;BMP180;7086;48.116;11.580;2022-08-21T11:15:43;95333.00;;;32.70
14023;BMP180;7086;48.116;11.580;2022-08-21T11:18:30;95368.00;;;33.30
14023;BMP180;7086;48.116;11.580;2022-08-21T11:21:19;95378.00;;;33.70
14023;BMP180;7086;48.116;11.580;2022-08-21T11:24:29;95355.00;;;33.60
14023;BMP180;7086;48.116;11.580;2022-08-21T11:27:07;95339.00;;;33.50
14023;BMP180;7086;48.116;11.580;2022-08-21T11:29:45;95389.00;;;32.90
14023;BMP180;7086;48.116;11.580;2022-08-21T11:35:46;95273.00;;;32.30
14023;BMP180;7086;48.116;11.580;2022-08-21T11:38:28;95371.00;;;31.80
14023;BMP180;7086;48.116;11.580;2022-08-21T11:41:27;95366.00;;;31.80
14023;BMP180;7086;48.116;11.580;2022-08-21T11:44:13;95291.00;;;31.40
14023;BMP180;7086;48.116;11.580;2022-08-21T11:46:53;95359.00;;;31.10
14023;BMP180;7086;48.116;11.580;2022-08-21T11:49:46;95351.00;;;31.00
14023;BMP180;7086;48.116;11.580;2022-08-21T11:52:24;95356.00;;;30.80
14023;BMP180;7086;48.116;11.580;2022-08-21T11:55:01;95300.00;;;30.90
14023;BMP180;7086;48.116;11.580;2022-08-21T11:57:37;95320.00;;;31.20
14023;BMP180;7086;48.116;11.580;2022-08-21T12:00:26;95342.00;;;31.60
14023;BMP180;7086;48.116;11.580;2022-08-21T12:03:07;95310.00;;;31.90
14023;BMP180;7086;48.116;11.580;2022-08-21T12:05:51;95342.00;;;32.10
14023;BMP180;7086;48.116;11.580;2022-08-21T12:08:31;95335.00;;;32.00
14023;BMP180;7086;48.116;11.580;2022-08-21T12:11:04;95340.00;;;31.60
14023;BMP180;7086;48.116;11.580;2022-08-21T12:13:38;95352.00;;;31.60
14023;BMP180;7086;48.116;11.580;2022-08-21T12:16:30;95329.00;;;31.40
14023;BMP180;7086;48.116;11.580;2022-08-21T12:19:06;95344.00;;;31.40
14023;BMP180;7086;48.116;11.580;2022-08-21T12:21:51;95269.00;;;31.30
14023;BMP180;7086;48.116;11.580;2022-08-21T12:24:37;95330.00;;;31.10
14023;BMP180;7086;48.116;11.580;2022-08-21T12:27:26;95326.00;;;30.90
14023;BMP180;7086;48.116;11.580;2022-08-21T12:29:59;95331.00;;;30.80
14023;BMP180;7086;48.116;11.580;2022-08-21T12:32:54;95283.00;;;30.80
14023;BMP180;7086;48.116;11.580;2022-08-21T12:35:32;95248.00;;;30.80
14023;BMP180;7086;48.116;11.580;2022-08-21T12:38:14;95250.00;;;30.90
14023;BMP180;7086;48.116;11.580;2022-08-21T12:40:52;95328.00;;;30.90
14023;BMP180;7086;48.116;11.580;2022-08-21T12:43:29;95337.00;;;30.90
14023;BMP180;7086;48.116;11.580;2022-08-21T12:46:00;95301.00;;;31.00
14023;BMP180;7086;48.116;11.580;2022-08-21T12:48:48;95281.00;;;31.00
14023;BMP180;7086;48.116;11.580;2022-08-21T12:51:22;95295.00;;;30.90
14023;BMP180;7086;48.116;11.580;2022-08-21T12:53:54;95313.00;;;30.90
14023;BMP180;7086;48.116;11.580;2022-08-21T12:56:33;95259.00;;;30.90
14023;BMP180;7086;48.116;11.580;2022-08-21T12:59:11;95283.00;;;31.00
14023;BMP180;7086;48.116;11.580;2022-08-21T13:01:54;95308.00;;;31.10
14023;BMP180;7086;48.116;11.580;2022-08-21T13:04:40;95278.00;;;31.20
14023;BMP180;7086;48.116;11.580;2022-08-21T13:07:27;95281.00;;;31.30
14023;BMP180;7086;48.116;11.580;2022-08-21T13:10:05;95268.00;;;31.40
14023;BMP180;7086;48.116;11.580;2022-08-21T13:13:12;95277.00;;;31.50
14023;BMP180;7086;48.116;11.580;2022-08-21T13:15:56;95281.00;;;31.70
14023;BMP180;7086;48.116;11.580;2022-08-21T13:18:55;95275.00;;;31.70
14023;BMP180;7086;48.116;11.580;2022-08-21T13:21:30;95289.00;;;31.80
14023;BMP180;7086;48.116;11.580;2022-08-21T13:24:39;95241.00;;;31.80
14023;BMP180;7086;48.116;11.580;2022-08-21T13:27:23;95258.00;;;31.70
14023;BMP180;7086;48.116;11.580;2022-08-21T13:30:08;95277.00;;;31.40
14023;BMP180;7086;48.116;11.580;2022-08-21T13:32:44;95292.00;;;31.20
14023;BMP180;7086;48.116;11.580;2022-08-21T13:35:20;95273.00;;;31.00
14023;BMP180;7086;48.116;11.580;2022-08-21T13:37:50;95274.00;;;30.80
14023;BMP180;7086;48.116;11.580;2022-08-21T13:40:24;95278.00;;;30.70
14023;BMP180;7086;48.116;11.580;2022-08-21T13:42:53;95266.00;;;30.60
14023;BMP180;7086;48.116;11.580;2022-08-21T13:45:31;95261.00;;;30.50
14023;BMP180;7086;48.116;11.580;2022-08-21T13:48:01;95241.00;;;30.40
14023;BMP180;7086;48.116;11.580;2022-08-21T13:50:29;95261.00;;;30.40
14023;BMP180;7086;48.116;11.580;2022-08-21T13:53:00;95248.00;;;30.40
14023;BMP180;7086;48.116;11.580;2022-08-21T13:55:39;95261.00;;;30.40
14023;BMP180;7086;48.116;11.580;2022-08-21T13:58:07;95259.00;;;30.50
14023;BMP180;7086;48.116;11.580;2022-08-21T14:00:46;95242.00;;;30.50
14023;BMP180;7086;48.116;11.580;2022-08-21T14:03:29;95262.00;;;30.50
14023;BMP180;7086;48.116;11.580;2022-08-21T14:05:58;95255.00;;;30.50
14023;BMP180;7086;48.116;11.580;2022-08-21T14:08:33;95237.00;;;30.60
14023;BMP180;7086;48.116;11.580;2022-08-21T14:11:04;95269.00;;;30.70
14023;BMP180;7086;48.116;11.580;2022-08-21T14:13:40;95255.00;;;30.80
14023;BMP180;7086;48.116;11.580;2022-08-21T14:16:20;95246.00;;;30.90
14023;BMP180;7086;48.116;11.580;2022-08-21T14:18:53;95258.00;;;31.10
14023;BMP180;7086;48.116;11.580;2022-08-21T14:21:39;95266.00;;;31.20
14023;BMP180;7086;48.116;11.580;2022-08-21T14:24:13;95243.00;;;31.40
14023;BMP180;7086;48.116;11.580;2022-08-21T14:27:00;95249.00;;;31.40
14023;BMP180;7086;48.116;11.580;2022-08-21T14:29:43;95250.00;;;31.50
14023;BMP180;7086;48.116;11.580;2022-08-21T14:32:39;95226.00;;;31.50
14023;BMP180;7086;48.116;11.580;2022-08-21T14:35:21;95257.00;;;31.50
14023;BMP180;7086;48.116;11.580;2022-08-21T14:38:11;95252.00;;;31.40
14023;BMP180;7086;48.116;11.580;2022-08-21T14:40:57;95267.00;;;31.20
14023;BMP180;7086;48.116;11.580;2022-08-21T14:43:38;95249.00;;;31.10
14023;BMP180;7086;48.116;11.580;2022-08-21T14:46:25;95218.00;;;31.00
14023;BMP180;7086;48.116;11.580;2022-08-21T14:49:17;95214.00;;;30.80
14023;BMP180;7086;48.116;11.580;2022-08-21T14:51:58;95246.00;;;30.70
14023;BMP180;7086;48.116;11.580;2022-08-21T14:54:31;95242.00;;;30.50
14023;BMP180;7086;48.116;11.580;2022-08-21T14:57:15;95241.00;;;30.40
14023;BMP180;7086;48.116;11.580;2022-08-21T14:59:57;95242.00;;;30.30
14023;BMP180;7086;48.116;11.580;2022-08-21T15:02:40;95238.00;;;30.20
14023;BMP180;7086;48.116;11.580;2022-08-21T15:05:24;95235.00;;;30.10
14023;BMP180;7086;48.116;11.580;2022-08-21T15:08:06;95229.00;;;30.10
14023;BMP180;7086;48.116;11.580;2022-08-21T15:11:11;95236.00;;;30.00
14023;BMP180;7086;48.116;11.580;2022-08-21T15:13:58;95232.00;;;29.90
14023;BMP180;7086;48.116;11.580;2022-08-21T15:19:08;95240.00;;;29.80
14023;BMP180;7086;48.116;11.580;2022-08-21T15:28:56;95233.00;;;29.80
14023;BMP180;7086;48.116;11.580;2022-08-21T15:31:56;95229.00;;;29.70
14023;BMP180;7086;48.116;11.580;2022-08-21T15:34:50;95235.00;;;29.60
14023;BMP180;7086;48.116;11.580;2022-08-21T15:37:32;95229.00;;;29.40
14023;BMP180;7086;48.116;11.580;2022-08-21T15:40:06;95235.00;;;29.40
14023;BMP180;7086;48.116;11.580;2022-08-21T15:42:56;95208.00;;;29.30
14023;BMP180;7086;48.116;11.580;2022-08-21T15:56:02;95239.00;;;29.20
14023;BMP180;7086;48.116;11.580;2022-08-21T15:58:44;95218.00;;;29.20
14023;BMP180;7086;48.116;11.580;2022-08-21T16:01:28;95192.00;;;29.10
14023;BMP180;7086;48.116;11.580;2022-08-21T16:14:35;95225.00;;;29.10
14023;BMP180;7086;48.116;11.580;2022-08-21T16:17:06;95215.00;;;29.10
14023;BMP180;7086;48.116;11.580;2022-08-21T16:19:48;95215.00;;;29.10
14023;BMP180;7086;48.116;11.580;2022-08-21T16:24:51;95204.00;;;29.00
14023;BMP180;7086;48.116;11.580;2022-08-21T16:27:34;95203.00;;;29.00
14023;BMP180;7086;48.116;11.580;2022-08-21T16:30:21;95182.00;;;29.00
14023;BMP180;7086;48.116;11.580;2022-08-21T16:32:51;95208.00;;;29.00
14023;BMP180;7086;48.116;11.580;2022-08-21T16:35:23;95204.00;;;28.90
14023;BMP180;7086;48.116;11.580;2022-08-21T16:38:05;95207.00;;;28.90
14023;BMP180;7086;48.116;11.580;2022-08-21T16:40:36;95198.00;;;28.80
14023;BMP180;7086;48.116;11.580;2022-08-21T16:43:18;95204.00;;;28.80
14023;BMP180;7086;48.116;11.580;2022-08-21T16:46:17;95159.00;;;28.70
14023;BMP180;7086;48.116;11.580;2022-08-21T16:48:46;95165.00;;;28.70
14023;BMP180;7086;48.116;11.580;2022-08-21T16:51:28;95207.00;;;28.70
14023;BMP180;7086;48.116;11.580;2022-08-21T16:53:57;95197.00;;;28.60
14023;BMP180;7086;48.116;11.580;2022-08-21T16:56:28;95202.00;;;28.60
14023;BMP180;7086;48.116;11.580;2022-08-21T16:58:57;95198.00;;;28.60
14023;BMP180;7086;48.116;11.580;2022-08-21T17:01:36;95198.00;;;28.50
14023;BMP180;7086;48.116;11.580;2022-08-21T17:04:19;95202.00;;;28.50
14023;BMP180;7086;48.116;11.580;2022-08-21T17:06:48;95197.00;;;28.50
14023;BMP180;7086;48.116;11.580;2022-08-21T17:09:17;95202.00;;;28.40
14023;BMP180;7086;48.116;11.580;2022-08-21T17:12:02;95205.00;;;28.40
14023;BMP180;7086;48.116;11.580;2022-08-21T17:14:44;95204.00;;;28.40
14023;BMP180;7086;48.116;11.580;2022-08-21T17:17:16;95212.00;;;28.30
14023;BMP180;7086;48.116;11.580;2022-08-21T17:19:48;95219.00;;;28.30
14023;BMP180;7086;48.116;11.580;2022-08-21T17:22:16;95196.00;;;28.20
14023;BMP180;7086;48.116;11.580;2022-08-21T17:24:57;95211.00;;;28.20
14023;BMP180;7086;48.116;11.580;2022-08-21T17:27:27;95213.00;;;28.10
14023;BMP180;7086;48.116;11.580;2022-08-21T17:30:10;95228.00;;;28.10